Time;durP1;ratioP1;P1;durP2;ratioP2;P2;SDS_P1;SDS_P2;PMS_P1;PMS_P2;Temp;Humidity;BMP_temperature;BMP_pressure;BME280_temperature;BME280_humidity;BME280_pressure;Samples;Min_cycle;Max_cycle;Signal;HPM_P1;HPM_P2
2022/06/24 00:01:39;;;;;;;3.50;2.23;;;19.40;35.30;;;;;;5052217;28;20178;-68
2022/06/24 00:04:05;;;;;;;4.13;2.10;;;19.40;34.00;;;;;;5053252;28;20441;-68
2022/06/24 00:06:46;;;;;;;2.70;1.70;;;19.50;34.10;;;;;;5053105;28;20506;-70
2022/06/24 00:09:14;;;;;;;3.83;1.97;;;19.50;33.60;;;;;;5052941;28;20210;-67
2022/06/24 00:11:40;;;;;;;4.60;2.10;;;19.60;33.10;;;;;;5052519;28;20508;-69
2022/06/24 00:14:13;;;;;;;7.20;2.40;;;19.50;33.70;;;;;;5053266;28;20975;-70
2022/06/24 00:16:58;;;;;;;6.50;2.30;;;19.40;34.30;;;;;;5052056;28;20540;-68
2022/06/24 00:19:25;;;;;;;7.17;2.90;;;19.50;34.70;;;;;;5052900;28;20492;-68
2022/06/24 00:22:03;;;;;;;5.53;2.80;;;19.40;35.00;;;;;;5051765;28;20490;-69
2022/06/24 00:24:30;;;;;;;4.93;3.23;;;19.40;35.50;;;;;;5053042;28;20433;-68
2022/06/24 00:26:56;;;;;;;6.13;1.77;;;19.40;34.60;;;;;;5052678;28;20429;-69
2022/06/24 00:29:24;;;;;;;10.40;2.20;;;19.40;34.10;;;;;;5051057;28;21088;-69
2022/06/24 00:32:05;;;;;;;5.00;2.50;;;19.30;35.90;;;;;;5052723;28;20401;-69
2022/06/24 00:34:36;;;;;;;5.47;2.30;;;19.20;38.80;;;;;;5051145;28;20443;-69
2022/06/24 00:37:28;;;;;;;3.70;2.70;;;19.20;37.90;;;;;;5052670;28;20414;-69
2022/06/24 00:40:00;;;;;;;4.07;2.13;;;19.10;39.10;;;;;;5052448;28;20774;-68
2022/06/24 00:42:26;;;;;;;2.50;1.70;;;19.00;39.10;;;;;;5052773;28;20408;-70
2022/06/24 00:45:03;;;;;;;4.03;2.60;;;18.90;40.40;;;;;;5052808;28;20494;-69
2022/06/24 00:47:31;;;;;;;5.23;1.80;;;18.90;41.80;;;;;;5055525;28;20405;-69
2022/06/24 00:50:00;;;;;;;12.67;2.53;;;18.90;43.10;;;;;;5054268;28;20431;-68
2022/06/24 00:52:26;;;;;;;4.70;2.67;;;18.90;42.80;;;;;;5051933;28;20900;-68
2022/06/24 00:54:51;;;;;;;4.47;2.60;;;18.90;41.40;;;;;;5051067;28;20518;-68
2022/06/24 00:57:17;;;;;;;6.47;2.17;;;18.90;41.20;;;;;;5052121;28;20178;-69
2022/06/24 00:59:46;;;;;;;6.60;1.77;;;19.00;41.80;;;;;;5051323;28;20182;-69
2022/06/24 01:02:14;;;;;;;3.90;2.50;;;19.00;41.30;;;;;;5052851;28;20417;-68
2022/06/24 01:04:40;;;;;;;2.83;2.10;;;19.10;40.90;;;;;;5052246;28;20457;-69
2022/06/24 01:07:05;;;;;;;3.43;2.47;;;19.10;40.90;;;;;;5050637;28;20967;-68
2022/06/24 01:09:31;;;;;;;2.47;2.00;;;18.90;40.60;;;;;;5051589;28;20201;-68
2022/06/24 01:11:56;;;;;;;3.23;2.20;;;18.90;40.70;;;;;;5052399;28;20186;-68
2022/06/24 01:14:22;;;;;;;2.60;2.23;;;18.90;40.90;;;;;;5052631;28;20333;-70
2022/06/24 01:16:47;;;;;;;4.90;2.20;;;18.80;40.80;;;;;;5052343;28;20175;-68
2022/06/24 01:19:14;;;;;;;5.60;2.33;;;18.90;40.40;;;;;;5052226;28;20250;-68
2022/06/24 01:21:46;;;;;;;5.37;2.47;;;18.80;40.70;;;;;;5052922;28;20265;-68
2022/06/24 01:24:15;;;;;;;5.03;2.33;;;18.80;41.30;;;;;;5059218;28;20433;-69
2022/06/24 01:26:42;;;;;;;3.10;2.10;;;18.80;40.80;;;;;;5059264;28;20409;-68
2022/06/24 01:29:08;;;;;;;2.90;2.47;;;18.80;40.90;;;;;;5057864;28;20484;-68
2022/06/24 01:31:34;;;;;;;6.67;3.40;;;18.80;40.40;;;;;;5059260;28;20502;-68
2022/06/24 01:34:00;;;;;;;5.27;3.10;;;18.80;40.30;;;;;;5058482;28;20221;-68
2022/06/24 01:36:26;;;;;;;4.50;2.87;;;18.80;40.60;;;;;;5058193;28;20236;-68
2022/06/24 01:38:51;;;;;;;3.30;3.00;;;18.70;39.70;;;;;;5058546;28;20409;-68
2022/06/24 01:41:17;;;;;;;7.53;3.03;;;18.70;40.00;;;;;;5057602;28;20185;-68
2022/06/24 01:43:43;;;;;;;6.00;2.67;;;18.70;41.20;;;;;;5058816;28;20194;-68
2022/06/24 01:46:11;;;;;;;4.03;1.83;;;18.60;41.30;;;;;;5057117;28;20470;-70
2022/06/24 01:48:37;;;;;;;5.63;3.03;;;18.60;41.20;;;;;;5058169;28;20979;-68
2022/06/24 01:51:04;;;;;;;4.17;2.80;;;18.60;41.60;;;;;;5058900;28;20417;-68
2022/06/24 01:53:29;;;;;;;2.40;2.10;;;18.60;40.60;;;;;;5058313;28;20547;-68
2022/06/24 01:55:55;;;;;;;3.77;2.53;;;18.60;40.90;;;;;;5058512;28;20444;-68
2022/06/24 01:58:20;;;;;;;3.73;2.50;;;18.50;40.20;;;;;;5058363;28;20185;-68
2022/06/24 02:00:46;;;;;;;4.97;2.80;;;18.50;40.00;;;;;;5058580;28;20342;-68
2022/06/24 02:03:11;;;;;;;4.57;3.00;;;18.30;40.50;;;;;;5057861;28;20201;-68
2022/06/24 02:05:38;;;;;;;5.30;2.50;;;18.30;39.90;;;;;;5058367;28;20555;-67
2022/06/24 02:08:04;;;;;;;6.23;2.97;;;18.20;40.80;;;;;;5057719;28;20202;-68
2022/06/24 02:13:29;;;;;;;3.53;2.70;;;18.10;39.40;;;;;;5059377;28;20621;-70
2022/06/24 02:15:55;;;;;;;5.80;3.13;;;18.20;40.20;;;;;;5058885;28;20409;-69
2022/06/24 02:18:22;;;;;;;4.00;2.30;;;18.20;40.20;;;;;;5058230;28;20972;-68
2022/06/24 02:20:48;;;;;;;4.13;2.87;;;18.20;40.60;;;;;;5058749;28;20460;-71
2022/06/24 02:23:14;;;;;;;3.13;2.17;;;18.30;40.20;;;;;;5058772;28;20420;-69
2022/06/24 02:25:39;;;;;;;4.90;2.20;;;18.10;40.80;;;;;;5057508;28;20800;-68
2022/06/24 02:28:05;;;;;;;5.30;3.00;;;18.10;41.60;;;;;;5056857;28;20673;-67
2022/06/24 02:30:31;;;;;;;4.07;2.10;;;18.20;40.20;;;;;;5058300;28;20638;-68
2022/06/24 02:32:56;;;;;;;5.60;2.70;;;18.30;40.40;;;;;;5058245;28;20178;-69
2022/06/24 02:35:22;;;;;;;2.93;2.10;;;18.20;41.00;;;;;;5053464;28;20206;-69
2022/06/24 02:37:47;;;;;;;5.53;2.47;;;18.30;40.40;;;;;;5054453;28;20208;-69
2022/06/24 02:42:58;;;;;;;7.60;2.87;;;18.30;39.90;;;;;;5054615;28;20655;-69
2022/06/24 02:45:24;;;;;;;7.13;3.43;;;18.40;39.90;;;;;;5054340;28;20429;-70
2022/06/24 02:47:49;;;;;;;7.90;2.60;;;18.30;39.70;;;;;;5054146;28;20457;-70
2022/06/24 02:50:15;;;;;;;2.70;2.20;;;18.30;40.10;;;;;;5054170;28;20463;-70
2022/06/24 02:52:41;;;;;;;4.63;3.07;;;18.30;39.60;;;;;;5054885;28;20249;-70
2022/06/24 02:55:09;;;;;;;4.50;3.37;;;18.40;39.80;;;;;;5056859;28;20203;-70
2022/06/24 02:57:35;;;;;;;4.30;3.20;;;18.40;39.50;;;;;;5057820;28;20175;-71
2022/06/24 03:00:00;;;;;;;4.60;2.37;;;18.40;39.80;;;;;;5057879;28;20409;-71
2022/06/24 03:02:26;;;;;;;6.10;2.57;;;18.30;39.80;;;;;;5059177;28;20206;-71
2022/06/24 03:04:51;;;;;;;4.40;3.37;;;18.20;40.30;;;;;;5060558;28;20214;-71
2022/06/24 03:07:17;;;;;;;4.27;2.40;;;18.20;41.70;;;;;;5058139;28;20246;-71
2022/06/24 03:09:43;;;;;;;4.67;3.23;;;18.30;42.10;;;;;;5055668;28;20208;-70
2022/06/24 03:12:09;;;;;;;4.50;3.27;;;18.20;41.90;;;;;;5054158;28;20186;-69
2022/06/24 03:14:34;;;;;;;5.20;2.90;;;18.10;43.10;;;;;;5052805;28;20453;-69
2022/06/24 03:17:00;;;;;;;7.93;3.23;;;18.00;42.60;;;;;;5053979;28;20796;-70
2022/06/24 03:19:25;;;;;;;3.80;3.47;;;17.90;43.20;;;;;;5053551;28;20649;-70
2022/06/24 03:21:51;;;;;;;9.43;3.17;;;17.80;44.20;;;;;;5052468;28;20886;-70
2022/06/24 03:24:16;;;;;;;4.30;2.90;;;17.80;45.20;;;;;;5052410;28;20578;-70
2022/06/24 03:26:42;;;;;;;4.80;2.90;;;17.80;46.00;;;;;;5053612;28;20530;-70
2022/06/24 03:29:07;;;;;;;5.90;2.80;;;17.70;45.40;;;;;;5052000;28;20202;-71
2022/06/24 03:31:33;;;;;;;5.63;3.23;;;17.70;45.10;;;;;;5053603;28;20183;-70
2022/06/24 03:33:58;;;;;;;3.60;2.63;;;17.70;45.70;;;;;;5053191;28;20198;-70
2022/06/24 03:36:25;;;;;;;5.10;3.00;;;17.60;44.70;;;;;;5053324;28;20190;-70
2022/06/24 03:38:50;;;;;;;9.43;3.20;;;17.60;45.00;;;;;;5053157;28;20261;-70
2022/06/24 03:41:16;;;;;;;3.10;2.37;;;17.70;43.60;;;;;;5053376;28;20500;-70
2022/06/24 03:43:41;;;;;;;5.40;3.00;;;17.60;44.30;;;;;;5053623;28;20202;-70
2022/06/24 03:46:07;;;;;;;7.40;3.70;;;17.60;45.40;;;;;;5051724;28;20222;-70
2022/06/24 03:48:32;;;;;;;8.73;3.50;;;17.60;44.90;;;;;;5052874;28;20202;-70
2022/06/24 03:50:58;;;;;;;5.67;3.40;;;17.60;44.20;;;;;;5053183;28;20178;-70
2022/06/24 03:53:24;;;;;;;4.43;2.73;;;17.60;44.70;;;;;;5053016;28;20244;-70
2022/06/24 03:55:50;;;;;;;7.73;3.30;;;17.50;46.20;;;;;;5053681;28;20760;-70
2022/06/24 03:58:19;;;;;;;7.10;2.93;;;17.50;45.00;;;;;;5052445;28;20232;-71
2022/06/24 04:00:45;;;;;;;3.60;2.67;;;17.50;44.90;;;;;;5051958;28;20478;-70
2022/06/24 04:03:11;;;;;;;6.43;2.83;;;17.60;43.50;;;;;;5052825;28;20511;-70
2022/06/24 04:05:37;;;;;;;3.73;2.53;;;17.70;43.00;;;;;;5052954;28;20424;-70
2022/06/24 04:08:03;;;;;;;3.33;2.50;;;17.70;43.00;;;;;;5051001;28;20457;-70
2022/06/24 04:10:29;;;;;;;4.40;2.73;;;17.80;42.70;;;;;;5052538;28;20464;-70
2022/06/24 04:12:55;;;;;;;4.30;2.90;;;17.90;42.50;;;;;;5052647;28;20512;-70
2022/06/24 04:15:20;;;;;;;7.00;2.73;;;18.00;41.50;;;;;;5051398;28;20441;-71
2022/06/24 04:17:48;;;;;;;3.70;1.97;;;18.10;40.00;;;;;;5052528;28;20179;-69
2022/06/24 04:20:17;;;;;;;5.27;2.37;;;18.20;39.40;;;;;;5052213;28;20174;-69
2022/06/24 04:22:43;;;;;;;3.77;2.20;;;18.30;38.70;;;;;;5050971;28;20421;-69
2022/06/24 04:25:10;;;;;;;3.27;2.43;;;18.30;38.30;;;;;;5052398;28;20429;-69
2022/06/24 04:27:36;;;;;;;2.10;1.77;;;18.40;38.10;;;;;;5052600;28;20413;-69
2022/06/24 04:30:07;;;;;;;7.03;2.37;;;18.50;37.20;;;;;;5052119;28;20421;-69
2022/06/24 04:32:33;;;;;;;4.43;2.67;;;18.50;36.70;;;;;;5051015;28;20425;-69
2022/06/24 04:34:58;;;;;;;2.10;1.43;;;18.50;36.80;;;;;;5052089;28;20445;-69
2022/06/24 04:37:24;;;;;;;4.47;2.77;;;18.50;37.50;;;;;;5051083;28;20529;-69
2022/06/24 04:39:52;;;;;;;6.23;2.77;;;18.60;36.80;;;;;;5052004;28;20182;-69
2022/06/24 04:42:18;;;;;;;2.80;2.53;;;18.60;36.10;;;;;;5051003;28;20189;-70
2022/06/24 04:44:43;;;;;;;6.50;3.10;;;18.70;35.90;;;;;;5052030;28;20437;-71
2022/06/24 04:47:12;;;;;;;2.70;2.50;;;18.70;36.60;;;;;;5051413;28;20190;-69
2022/06/24 04:49:38;;;;;;;3.40;2.43;;;18.80;36.20;;;;;;5051767;28;20264;-69
2022/06/24 04:52:06;;;;;;;5.47;3.97;;;18.90;36.40;;;;;;5052015;28;20425;-69
2022/06/24 04:54:32;;;;;;;4.97;3.27;;;19.40;35.30;;;;;;5051920;28;20216;-70
2022/06/24 04:56:58;;;;;;;14.77;2.70;;;20.60;32.50;;;;;;5051181;28;20507;-70
2022/06/24 04:59:24;;;;;;;3.90;3.17;;;21.50;26.90;;;;;;5051765;28;20599;-70
2022/06/24 05:01:50;;;;;;;6.47;5.47;;;22.70;24.70;;;;;;5051835;28;20190;-71
2022/06/24 05:04:15;;;;;;;7.77;7.10;;;24.10;22.00;;;;;;5051843;28;20437;-70
2022/06/24 05:06:44;;;;;;;8.73;8.03;;;25.30;20.10;;;;;;5050486;28;20563;-70
2022/06/24 05:09:09;;;;;;;8.60;8.00;;;26.20;18.70;;;;;;5051140;28;20210;-70
2022/06/24 05:11:35;;;;;;;10.00;9.10;;;27.20;16.80;;;;;;5051720;28;20410;-70
2022/06/24 05:14:00;;;;;;;9.53;9.03;;;27.70;13.10;;;;;;5051628;28;20273;-70
2022/06/24 05:16:26;;;;;;;15.60;11.07;;;28.20;12.70;;;;;;5051417;28;20272;-72
2022/06/24 05:18:52;;;;;;;11.30;10.70;;;29.00;11.40;;;;;;5051547;28;20178;-71
2022/06/24 05:21:17;;;;;;;12.10;11.50;;;29.70;11.60;;;;;;5051499;28;20273;-71
2022/06/24 05:23:46;;;;;;;11.73;11.10;;;30.30;7.90;;;;;;5051543;28;20202;-70
2022/06/24 05:26:11;;;;;;;12.17;11.67;;;31.00;8.30;;;;;;5051580;28;20193;-70
2022/06/24 05:28:37;;;;;;;13.13;12.47;;;31.40;7.20;;;;;;5051243;28;20449;-69
2022/06/24 05:31:02;;;;;;;12.90;12.20;;;32.10;5.40;;;;;;5051338;28;20213;-70
2022/06/24 05:33:30;;;;;;;14.07;13.20;;;32.90;5.80;;;;;;5051343;28;20266;-69
2022/06/24 05:35:56;;;;;;;14.23;13.40;;;33.50;4.00;;;;;;5049816;28;20222;-69
2022/06/24 05:38:22;;;;;;;13.67;12.97;;;34.10;3.20;;;;;;5051263;28;20445;-69
2022/06/24 05:40:50;;;;;;;13.53;13.03;;;34.70;2.50;;;;;;5051445;28;20323;-69
2022/06/24 05:43:16;;;;;;;13.57;12.93;;;35.10;1.50;;;;;;5051651;28;20822;-70
2022/06/24 05:45:42;;;;;;;12.90;12.40;;;35.70;1.00;;;;;;5051282;28;21015;-69
2022/06/24 05:48:08;;;;;;;13.43;12.93;;;36.30;1.00;;;;;;5050560;28;20468;-69
2022/06/24 05:50:37;;;;;;;12.80;12.20;;;36.70;1.00;;;;;;5029649;28;20425;-69
2022/06/24 05:55:47;;;;;;;13.67;13.13;;;37.50;1.00;;;;;;5038134;28;20792;-69
2022/06/24 05:58:16;;;;;;;14.03;13.10;;;37.80;1.00;;;;;;5030947;28;20406;-70
2022/06/24 06:00:42;;;;;;;14.83;14.13;;;37.70;1.00;;;;;;5050060;28;20681;-72
2022/06/24 06:03:08;;;;;;;16.10;15.10;;;37.90;1.00;;;;;;5051323;28;20405;-71
2022/06/24 06:05:34;;;;;;;14.90;14.20;;;37.60;1.00;;;;;;5050850;28;20455;-71
2022/06/24 06:07:59;;;;;;;14.67;14.07;;;38.00;1.00;;;;;;5049069;28;20206;-71
2022/06/24 06:10:25;;;;;;;15.30;14.30;;;38.50;1.00;;;;;;5035204;28;20190;-72
2022/06/24 06:12:50;;;;;;;15.10;14.40;;;38.70;1.00;;;;;;5034879;28;20262;-71
2022/06/24 06:15:16;;;;;;;14.27;13.67;;;38.80;1.00;;;;;;5049929;28;20206;-72
2022/06/24 06:17:45;;;;;;;14.80;13.90;;;38.60;1.00;;;;;;5050564;28;20561;-71
2022/06/24 06:20:14;;;;;;;14.90;14.20;;;38.70;1.00;;;;;;5054262;28;20645;-71
2022/06/24 06:22:39;;;;;;;14.83;14.13;;;38.80;1.00;;;;;;5054975;28;20426;-72
2022/06/24 06:25:05;;;;;;;15.70;15.10;;;39.10;1.00;;;;;;5054828;28;20424;-71
2022/06/24 06:27:30;;;;;;;15.57;14.77;;;39.60;1.00;;;;;;5047356;28;20663;-71
2022/06/24 06:29:57;;;;;;;14.57;13.97;;;39.60;1.00;;;;;;5050891;28;20297;-72
2022/06/24 06:32:23;;;;;;;14.93;14.23;;;38.50;1.00;;;;;;5054665;28;20224;-71
2022/06/24 06:34:49;;;;;;;15.33;14.60;;;38.80;1.00;;;;;;5054943;28;20433;-71
2022/06/24 06:37:14;;;;;;;14.43;13.83;;;38.60;1.00;;;;;;5054586;28;20193;-72
2022/06/24 06:39:45;;;;;;;14.27;13.77;;;38.90;1.00;;;;;;5054176;28;20255;-72
2022/06/24 06:42:11;;;;;;;14.80;14.20;;;39.10;1.00;;;;;;5051440;28;20288;-70
2022/06/24 06:44:37;;;;;;;15.07;14.40;;;39.40;1.00;;;;;;5043673;28;20503;-70
2022/06/24 06:47:02;;;;;;;15.47;14.40;;;39.90;1.00;;;;;;5054122;28;20461;-71
2022/06/24 06:49:28;;;;;;;15.30;14.60;;;40.20;1.00;;;;;;5042420;28;20190;-69
2022/06/24 06:51:53;;;;;;;15.43;14.50;;;40.40;1.00;;;;;;5033947;28;20186;-69
2022/06/24 06:54:19;;;;;;;15.23;14.50;;;39.70;1.00;;;;;;5032638;28;20349;-69
2022/06/24 06:56:44;;;;;;;14.70;14.00;;;39.00;1.00;;;;;;5032812;28;20444;-70
2022/06/24 06:59:10;;;;;;;14.70;14.00;;;38.70;1.00;;;;;;5032497;28;20234;-69
2022/06/24 07:01:36;;;;;;;14.20;13.50;;;37.90;1.00;;;;;;5032264;28;20509;-69
2022/06/24 07:04:01;;;;;;;14.90;14.20;;;37.20;1.00;;;;;;5032237;28;20203;-69
2022/06/24 07:06:27;;;;;;;14.07;13.37;;;36.70;1.00;;;;;;5032571;28;20538;-69
2022/06/24 07:08:52;;;;;;;13.80;13.20;;;36.00;1.00;;;;;;5035968;28;20178;-70
2022/06/24 07:11:18;;;;;;;14.40;12.90;;;35.00;1.00;;;;;;5049922;28;20717;-69
2022/06/24 07:13:43;;;;;;;13.73;13.03;;;34.40;1.00;;;;;;5050004;28;20206;-70
2022/06/24 07:16:12;;;;;;;13.70;13.07;;;34.20;1.00;;;;;;5049243;28;20186;-69
2022/06/24 07:18:38;;;;;;;13.63;12.77;;;33.80;1.00;;;;;;5048507;28;20213;-68
2022/06/24 07:21:03;;;;;;;12.97;12.37;;;33.70;1.00;;;;;;5049190;28;20413;-71
2022/06/24 07:23:29;;;;;;;13.90;13.30;;;33.30;1.00;;;;;;5050375;28;20194;-68
2022/06/24 07:25:58;;;;;;;14.13;13.43;;;33.10;1.00;;;;;;5049205;28;20175;-68
2022/06/24 07:28:28;;;;;;;14.17;13.20;;;33.00;1.00;;;;;;5047605;28;20712;-69
2022/06/24 07:30:54;;;;;;;13.90;13.30;;;33.40;1.00;;;;;;5049983;28;20425;-69
2022/06/24 07:33:19;;;;;;;13.93;13.40;;;33.20;1.00;;;;;;5049092;28;21014;-68
2022/06/24 07:35:45;;;;;;;13.80;13.20;;;32.40;1.00;;;;;;5047766;28;20209;-69
2022/06/24 07:38:11;;;;;;;13.33;12.83;;;31.50;1.00;;;;;;5056528;28;20471;-69
2022/06/24 07:40:36;;;;;;;13.37;12.87;;;31.10;1.00;;;;;;5069192;28;20249;-69
2022/06/24 07:43:02;;;;;;;14.57;13.50;;;30.60;1.00;;;;;;5069057;28;20190;-69
2022/06/24 07:45:28;;;;;;;13.60;13.10;;;30.20;1.20;;;;;;5069737;28;20304;-69
2022/06/24 07:47:53;;;;;;;13.93;12.93;;;29.80;1.50;;;;;;5069497;28;20182;-68
2022/06/24 07:50:19;;;;;;;13.00;12.50;;;29.30;2.80;;;;;;5068802;28;20221;-69
2022/06/24 07:52:44;;;;;;;14.00;13.30;;;28.80;3.10;;;;;;5061056;28;20183;-68
2022/06/24 07:57:54;;;;;;;18.70;14.00;;;28.50;3.50;;;;;;5031808;28;20199;-69
2022/06/24 08:00:20;;;;;;;13.60;13.10;;;28.30;4.50;;;;;;5032994;28;20787;-68
2022/06/24 08:02:46;;;;;;;13.20;12.70;;;27.70;4.90;;;;;;5033311;28;20668;-68
2022/06/24 08:05:12;;;;;;;13.90;12.97;;;27.60;4.60;;;;;;5052214;28;20593;-68
2022/06/24 08:07:37;;;;;;;13.70;12.70;;;27.70;5.60;;;;;;5053528;28;20171;-69
2022/06/24 08:10:03;;;;;;;13.50;12.80;;;27.70;4.60;;;;;;5052792;28;20189;-69
2022/06/24 08:12:29;;;;;;;12.50;11.87;;;27.30;5.40;;;;;;5052818;28;20193;-70
2022/06/24 08:14:54;;;;;;;12.30;11.80;;;27.20;5.70;;;;;;5053545;28;21062;-69
2022/06/24 08:17:20;;;;;;;13.20;12.50;;;27.40;6.20;;;;;;5034415;28;20214;-69
2022/06/24 08:19:45;;;;;;;12.87;12.17;;;27.40;5.30;;;;;;5033977;28;20207;-68
2022/06/24 08:22:11;;;;;;;13.63;12.83;;;27.20;5.50;;;;;;5043751;28;20198;-68
2022/06/24 08:24:37;;;;;;;12.33;11.73;;;27.20;6.10;;;;;;5054662;28;20195;-69
2022/06/24 08:27:02;;;;;;;12.43;11.77;;;27.10;6.60;;;;;;5055110;28;20638;-67
2022/06/24 08:29:28;;;;;;;11.90;11.50;;;27.30;6.30;;;;;;5054126;28;20225;-67
2022/06/24 08:31:54;;;;;;;12.73;12.03;;;27.50;6.10;;;;;;5054133;28;20186;-68
2022/06/24 08:34:21;;;;;;;12.20;11.80;;;27.50;6.20;;;;;;5054906;28;20203;-67
2022/06/24 08:36:47;;;;;;;12.33;11.83;;;27.40;6.40;;;;;;5053024;28;20186;-67
2022/06/24 08:39:12;;;;;;;12.67;12.17;;;27.80;5.40;;;;;;5052883;28;20475;-68
2022/06/24 08:41:39;;;;;;;12.70;12.10;;;28.30;5.40;;;;;;5054153;28;20425;-68
2022/06/24 08:44:04;;;;;;;13.53;12.77;;;28.80;5.20;;;;;;5053950;28;20202;-68
2022/06/24 08:46:30;;;;;;;12.80;12.30;;;29.70;4.10;;;;;;5053317;28;20957;-69
2022/06/24 08:48:58;;;;;;;13.07;12.50;;;30.20;3.50;;;;;;5052730;28;20562;-68
2022/06/24 08:51:25;;;;;;;12.90;12.40;;;31.10;2.60;;;;;;5053433;28;20577;-69
2022/06/24 08:53:55;;;;;;;13.50;13.00;;;31.40;1.00;;;;;;5039647;28;20516;-69
2022/06/24 08:56:21;;;;;;;13.70;12.90;;;32.00;1.40;;;;;;5054706;28;20424;-69
2022/06/24 08:58:47;;;;;;;13.07;12.47;;;32.30;1.00;;;;;;5053318;28;20502;-69
2022/06/24 09:01:15;;;;;;;13.10;12.50;;;32.50;1.00;;;;;;5053723;28;20186;-68
2022/06/24 09:03:43;;;;;;;13.23;12.63;;;31.60;1.00;;;;;;5033684;28;20465;-67
2022/06/24 09:06:16;;;;;;;13.07;12.57;;;31.10;1.00;;;;;;5032686;28;20508;-67
2022/06/24 09:08:49;;;;;;;12.67;12.17;;;31.10;1.10;;;;;;5045950;28;20440;-67
2022/06/24 09:11:14;;;;;;;13.50;12.80;;;30.80;1.70;;;;;;5044171;28;20508;-67
2022/06/24 09:13:48;;;;;;;12.93;12.43;;;29.80;2.90;;;;;;5041761;28;21046;-67
2022/06/24 09:16:20;;;;;;;13.90;12.63;;;29.80;3.50;;;;;;5042475;28;20197;-68
2022/06/24 09:18:51;;;;;;;13.83;13.13;;;29.50;2.80;;;;;;5043465;28;20456;-68
2022/06/24 09:21:25;;;;;;;14.93;13.77;;;29.10;4.40;;;;;;5042447;28;20437;-68
2022/06/24 09:23:53;;;;;;;13.63;13.00;;;29.00;4.20;;;;;;5042557;28;20433;-68
2022/06/24 09:26:37;;;;;;;12.47;11.97;;;28.80;3.70;;;;;;5055180;28;20832;-68
2022/06/24 09:29:13;;;;;;;13.07;12.20;;;28.80;4.10;;;;;;5041913;28;20417;-68
2022/06/24 09:31:39;;;;;;;12.63;12.13;;;28.50;3.50;;;;;;5045677;28;20486;-69
2022/06/24 09:34:17;;;;;;;12.77;12.27;;;27.60;3.80;;;;;;5046687;28;20437;-68
2022/06/24 09:36:45;;;;;;;13.23;12.63;;;27.20;6.30;;;;;;5049564;28;20439;-68
2022/06/24 09:39:13;;;;;;;12.57;11.93;;;27.20;6.70;;;;;;5065783;28;20459;-68
2022/06/24 09:41:50;;;;;;;12.20;11.70;;;26.90;7.20;;;;;;5047131;28;20424;-68
2022/06/24 09:44:17;;;;;;;12.70;12.00;;;26.10;8.30;;;;;;5074090;28;20482;-68
2022/06/24 09:46:43;;;;;;;13.43;12.50;;;25.80;8.00;;;;;;5055681;28;20514;-67
2022/06/24 09:49:17;;;;;;;11.43;10.93;;;25.60;9.10;;;;;;5052376;28;20420;-68
2022/06/24 09:51:44;;;;;;;11.83;11.33;;;25.90;9.70;;;;;;5054719;28;20468;-69
2022/06/24 09:54:11;;;;;;;11.33;10.87;;;26.10;8.00;;;;;;5072104;23;21013;-66
2022/06/24 09:56:39;;;;;;;12.03;11.33;;;25.60;8.20;;;;;;5035438;28;20520;-66
2022/06/24 10:01:50;;;;;;;12.50;11.70;;;25.90;8.30;;;;;;5035315;28;20471;-66
2022/06/24 10:04:20;;;;;;;12.27;11.77;;;25.90;9.70;;;;;;5039414;28;20459;-66
2022/06/24 10:06:48;;;;;;;11.60;11.00;;;26.70;8.60;;;;;;5053876;28;20428;-66
2022/06/24 10:09:14;;;;;;;11.77;11.27;;;27.30;6.30;;;;;;5053109;28;20472;-65
2022/06/24 10:11:42;;;;;;;12.70;12.00;;;27.40;5.80;;;;;;5055497;28;20497;-66
2022/06/24 10:14:08;;;;;;;12.67;12.00;;;27.00;7.00;;;;;;5054912;28;20811;-66
2022/06/24 10:16:35;;;;;;;11.17;10.70;;;27.50;7.40;;;;;;5054982;28;20445;-66
2022/06/24 10:19:03;;;;;;;11.80;11.30;;;28.20;6.20;;;;;;5054652;28;20433;-66
2022/06/24 10:21:29;;;;;;;11.97;11.47;;;28.70;5.00;;;;;;5055316;28;20417;-66
2022/06/24 10:23:56;;;;;;;12.20;11.60;;;29.00;4.70;;;;;;5054884;28;20455;-67
2022/06/24 10:26:30;;;;;;;13.10;12.03;;;29.30;4.70;;;;;;5055147;28;20421;-66
2022/06/24 10:29:03;;;;;;;13.07;12.30;;;29.50;4.10;;;;;;5054806;28;20616;-69
2022/06/24 10:31:55;;;;;;;12.77;12.27;;;29.70;3.10;;;;;;5055236;28;20417;-67
2022/06/24 10:34:29;;;;;;;13.80;12.97;;;29.40;4.00;;;;;;5054527;28;20981;-68
2022/06/24 10:37:22;;;;;;;12.60;12.10;;;29.50;3.50;;;;;;5054548;28;20433;-68
2022/06/24 10:39:49;;;;;;;14.20;13.20;;;29.90;2.90;;;;;;5052829;28;20864;-69
2022/06/24 10:42:15;;;;;;;13.00;12.50;;;30.00;3.00;;;;;;5047132;28;20434;-68
2022/06/24 10:44:53;;;;;;;12.70;12.20;;;30.20;3.10;;;;;;5034291;28;20429;-68
2022/06/24 10:47:19;;;;;;;14.33;13.63;;;30.20;2.10;;;;;;5048772;28;20471;-68
2022/06/24 10:49:54;;;;;;;14.07;13.40;;;30.00;2.00;;;;;;5052595;28;20488;-67
2022/06/24 10:52:34;;;;;;;13.60;13.10;;;29.90;2.50;;;;;;5053649;28;20420;-68
2022/06/24 10:55:21;;;;;;;13.03;12.43;;;29.90;2.80;;;;;;5052825;28;20499;-68
2022/06/24 10:57:52;;;;;;;12.80;12.30;;;29.90;2.30;;;;;;5043750;28;20429;-68
2022/06/24 11:00:37;;;;;;;13.33;12.73;;;30.00;1.60;;;;;;5052100;28;20428;-69
2022/06/24 11:03:03;;;;;;;13.27;12.67;;;30.10;1.90;;;;;;5049689;28;21014;-68
2022/06/24 11:05:36;;;;;;;13.10;12.60;;;30.00;2.10;;;;;;5052517;28;20437;-68
2022/06/24 11:08:12;;;;;;;14.10;12.97;;;30.20;1.80;;;;;;5053086;28;20193;-68
2022/06/24 11:10:39;;;;;;;13.10;12.60;;;30.10;2.00;;;;;;5052126;28;20433;-69
2022/06/24 11:13:05;;;;;;;13.57;12.93;;;29.70;1.90;;;;;;5053140;28;20988;-68
2022/06/24 11:15:35;;;;;;;13.23;12.73;;;29.80;2.70;;;;;;5048788;28;20481;-68
2022/06/24 11:18:33;;;;;;;13.43;12.80;;;28.90;2.10;;;;;;5053054;28;20182;-69
2022/06/24 11:21:08;;;;;;;14.93;14.03;;;28.60;2.60;;;;;;5052148;28;20424;-68
2022/06/24 11:23:37;;;;;;;13.80;13.30;;;28.90;3.00;;;;;;5053452;28;20428;-68
2022/06/24 11:26:09;;;;;;;13.60;12.90;;;29.20;2.20;;;;;;5053722;28;20826;-68
2022/06/24 11:28:36;;;;;;;14.20;13.50;;;29.30;2.00;;;;;;5044250;28;20528;-69
2022/06/24 11:31:23;;;;;;;14.00;13.27;;;29.40;1.70;;;;;;5032601;28;20921;-67
2022/06/24 11:33:58;;;;;;;12.83;12.23;;;29.00;3.30;;;;;;5031726;28;20777;-69
2022/06/24 11:36:26;;;;;;;13.67;12.70;;;29.00;2.60;;;;;;5031722;28;20408;-68
2022/06/24 11:39:01;;;;;;;12.70;12.20;;;28.90;3.00;;;;;;5031363;28;20413;-69
2022/06/24 11:41:27;;;;;;;12.50;11.90;;;29.20;2.60;;;;;;5030699;28;20433;-69
2022/06/24 11:43:53;;;;;;;13.20;12.70;;;29.00;2.40;;;;;;5031740;28;20881;-69
2022/06/24 11:46:19;;;;;;;12.37;11.87;;;28.70;3.60;;;;;;5032132;28;20421;-69
2022/06/24 11:48:45;;;;;;;13.53;13.03;;;29.20;3.80;;;;;;5032802;28;20450;-68
2022/06/24 11:51:21;;;;;;;13.13;12.53;;;29.20;2.60;;;;;;5033425;28;20172;-68
2022/06/24 11:54:00;;;;;;;13.03;12.43;;;29.60;2.60;;;;;;5032853;28;20206;-68
2022/06/24 11:56:29;;;;;;;12.30;11.80;;;29.90;2.90;;;;;;5033230;28;20413;-68
2022/06/24 11:58:59;;;;;;;12.90;12.40;;;30.00;1.70;;;;;;5032481;28;20414;-69
2022/06/24 12:01:26;;;;;;;13.37;12.80;;;30.40;2.10;;;;;;5033166;28;20428;-68
2022/06/24 12:03:58;;;;;;;13.30;12.50;;;30.60;1.10;;;;;;5032752;28;20426;-69
2022/06/24 12:06:24;;;;;;;13.20;12.70;;;30.80;1.80;;;;;;5032742;28;20410;-68
2022/06/24 12:08:50;;;;;;;13.17;12.67;;;30.70;1.00;;;;;;5032235;28;21020;-69
2022/06/24 12:11:21;;;;;;;14.27;13.77;;;30.10;1.00;;;;;;5032700;28;20829;-68
2022/06/24 12:14:04;;;;;;;14.20;13.50;;;29.90;1.40;;;;;;5032681;28;20763;-68
2022/06/24 12:16:54;;;;;;;14.00;13.33;;;29.80;1.00;;;;;;5032661;28;20433;-68
2022/06/24 12:19:20;;;;;;;12.93;12.43;;;29.60;1.00;;;;;;5032208;28;20425;-70
2022/06/24 12:21:46;;;;;;;12.97;12.47;;;29.30;1.60;;;;;;5032497;28;20410;-67
2022/06/24 12:24:25;;;;;;;13.10;12.57;;;29.10;1.50;;;;;;5032558;28;20203;-67
2022/06/24 12:26:52;;;;;;;13.80;13.10;;;29.00;1.80;;;;;;5031437;28;20311;-68
2022/06/24 12:29:31;;;;;;;13.83;13.23;;;28.50;2.10;;;;;;5032131;28;20520;-69
2022/06/24 12:31:58;;;;;;;13.50;12.70;;;28.00;2.40;;;;;;5032508;28;20406;-69
2022/06/24 12:34:25;;;;;;;13.10;12.60;;;28.30;3.40;;;;;;5032329;28;20437;-69
2022/06/24 12:37:03;;;;;;;13.77;13.17;;;28.50;3.00;;;;;;5032536;28;20437;-69
2022/06/24 12:39:37;;;;;;;12.57;11.97;;;28.10;3.30;;;;;;5031995;28;20410;-69
2022/06/24 12:42:04;;;;;;;12.63;12.13;;;28.20;3.30;;;;;;5032331;28;20819;-69
2022/06/24 12:44:41;;;;;;;14.90;14.03;;;28.30;3.40;;;;;;5032164;28;20963;-69
2022/06/24 12:52:40;;;;;;;13.77;13.07;;;28.00;3.90;;;;;;5032322;28;20493;-70
2022/06/24 12:55:13;;;;;;;12.90;12.40;;;27.70;4.50;;;;;;5031752;28;20453;-69
2022/06/24 12:57:39;;;;;;;13.20;12.60;;;27.50;4.90;;;;;;5032059;28;20488;-70
2022/06/24 13:00:10;;;;;;;12.70;12.00;;;27.30;5.30;;;;;;5031806;28;20449;-70
2022/06/24 13:02:41;;;;;;;12.53;12.03;;;27.10;5.70;;;;;;5031893;28;20661;-69
2022/06/24 13:05:06;;;;;;;12.43;11.70;;;26.90;6.40;;;;;;5030718;28;20442;-69